Solvang, CA (93464)

8:49 AM PST on March 03, 2015 (GMT -0800)
APRSWXNET Gaviota CA US | Change Station
CLOSE
Current Station
Personal Weather Station
Location: Solvang, CA
Elevation: 147 ft
Nearby Weather Stations

Elev 147 ft 34.48 °N, 120.20 °W | Updated 31 minutes ago

Clear
Clear
59 °F
Feels Like 59 °F
N
2
Wind Variable Wind from SW
Gusts 7.0 mph

Today
High -- | Low -- °F
--% Chance of Precip.
Yesterday
High -- | Low -- °F
Precip. -- in
6:27 AM 5:58 PM
Waxing Gibbous, 96% visible
Pressure 30.00 in
Visibility 10.0 miles
Clouds Clear
Dew Point 43 °F
Humidity 55%
Rainfall 0.15 in
Snow Depth Not available.
UV 2 out of 12
Pollen 8.60 out of 12
Air Quality Not available.
Flu Activity Not available.
METAR KIZA 031635Z AUTO 00000KT 10SM CLR 06/04 A3000 RMK AO2

More Conditions Fewer Conditions

Pressure 30.00 in
Visibility 10.0 miles
Clouds Clear
Dew Point 43 °F
Humidity 55%
Rainfall 0.15 in
Snow Depth Not available.
UV 2 out of 12
Pollen 8.60 out of 12
Air Quality Not available.
Flu Activity Not available.
METAR KIZA 031635Z AUTO 00000KT 10SM CLR 06/04 A3000 RMK AO2

More Conditions Fewer Conditions

10-Day Weather Forecast

Almanac

Astronomy

Mar. 03, 2015 Rise Set
Actual Time
Civil Twilight
Nautical Twilight
Astronomical Twilight
Moon
Length of Visible Light
Length of Day
Tomorrow will be .
, % of the Moon is Illuminated

Today's Extremes

State Highs State Lows

Community

WunderPhotos

Upload Photos

1,802,170 photos uploaded!

WunderBlogs® & News

Nearby

Air Quality

  Air Quality AQ Index Pollutant
Not available.

Snow Depth

Station Depth Elevation

Earthquake Activity

City Distance Mag. Time & Date
Minimum magnitude displayed is 2.5.

Coastal Water Temperatures

Place Temperature

Nearby Weather Stations